Time,TemperatureF,DewpointF,PressureIn,WindDirection,WindDirectionDegrees,WindSpeedMPH,WindSpeedGustMPH,Humidity,HourlyPrecipIn,Conditions,Clouds,dailyrainin,SoftwareType,DateUTC
2012-02-04 00:06:00,34.1,13.0,30.11,NNE,23,2.0,2.0,41,0.00,,,0.00,weatherlink.com 1.10,2012-02-04 08:06:00,
2012-02-04 00:21:00,34.2,14.0,30.11,NE,36,0.0,1.0,43,0.00,,,0.00,weatherlink.com 1.10,2012-02-04 08:21:00,
2012-02-04 00:36:00,34.3,13.0,30.11,NNE,20,1.0,2.0,41,0.00,,,0.00,weatherlink.com 1.10,2012-02-04 08:36:00,
2012-02-04 00:51:00,35.5,13.0,30.11,NNE,26,0.0,4.0,39,0.00,,,0.00,weatherlink.com 1.10,2012-02-04 08:51:00,
2012-02-04 01:06:00,33.9,12.0,30.12,NNE,15,0.0,1.0,41,0.00,,,0.00,weatherlink.com 1.10,2012-02-04 09:06:00,
2012-02-04 01:21:00,34.9,12.0,30.11,NNE,15,2.0,2.0,39,0.00,,,0.00,weatherlink.com 1.10,2012-02-04 09:21:00,
2012-02-04 01:36:00,33.9,12.0,30.11,NNE,24,1.0,2.0,41,0.00,,,0.00,weatherlink.com 1.10,2012-02-04 09:36:00,
2012-02-04 01:51:00,34.8,12.0,30.11,NNE,18,2.0,2.0,39,0.00,,,0.00,weatherlink.com 1.10,2012-02-04 09:51:00,
2012-02-04 02:06:00,33.4,12.0,30.11,NNE,30,0.0,2.0,41,0.00,,,0.00,weatherlink.com 1.10,2012-02-04 10:06:00,
2012-02-04 02:21:00,35.1,12.0,30.11,NNE,20,3.0,3.0,39,0.00,,,0.00,weatherlink.com 1.10,2012-02-04 10:21:00,
2012-02-04 02:36:00,35.1,13.0,30.11,NE,39,0.0,4.0,40,0.00,,,0.00,weatherlink.com 1.10,2012-02-04 10:36:00,
2012-02-04 02:51:00,34.8,11.0,30.10,NNE,18,2.0,2.0,37,0.00,,,0.00,weatherlink.com 1.10,2012-02-04 10:51:00,
2012-02-04 03:06:00,36.3,10.0,30.10,North,10,4.0,5.0,34,0.00,,,0.00,weatherlink.com 1.10,2012-02-04 11:06:00,
2012-02-04 03:21:00,35.6,10.0,30.10,North,10,3.0,4.0,35,0.00,,,0.00,weatherlink.com 1.10,2012-02-04 11:21:00,
2012-02-04 03:36:00,36.9,9.0,30.11,NNE,29,4.0,6.0,31,0.00,,,0.00,weatherlink.com 1.10,2012-02-04 11:36:00,
2012-02-04 03:52:00,37.3,11.0,30.11,NE,34,2.0,5.0,34,0.00,,,0.00,weatherlink.com 1.10,2012-02-04 11:52:00,
2012-02-04 04:06:00,35.1,9.0,30.11,NNE,23,2.0,4.0,34,0.00,,,0.00,weatherlink.com 1.10,2012-02-04 12:06:00,
2012-02-04 04:22:00,33.8,9.0,30.11,NNE,25,2.0,3.0,36,0.00,,,0.00,weatherlink.com 1.10,2012-02-04 12:22:00,
2012-02-04 04:37:00,36.0,8.0,30.11,NNE,26,2.0,3.0,31,0.00,,,0.00,weatherlink.com 1.10,2012-02-04 12:37:00,
2012-02-04 04:51:00,36.5,7.0,30.11,NNE,26,2.0,4.0,29,0.00,,,0.00,weatherlink.com 1.10,2012-02-04 12:51:00,
2012-02-04 05:07:00,36.1,6.0,30.11,NNE,18,3.0,4.0,28,0.00,,,0.00,weatherlink.com 1.10,2012-02-04 13:07:00,
2012-02-04 05:22:00,37.0,6.0,30.11,NNE,23,1.0,4.0,27,0.00,,,0.00,weatherlink.com 1.10,2012-02-04 13:22:00,
2012-02-04 05:37:00,36.1,5.0,30.11,NNE,18,3.0,4.0,27,0.00,,,0.00,weatherlink.com 1.10,2012-02-04 13:37:00,
2012-02-04 05:52:00,36.7,5.0,30.12,NNE,18,3.0,4.0,26,0.00,,,0.00,weatherlink.com 1.10,2012-02-04 13:52:00,
2012-02-04 06:07:00,37.1,6.0,30.12,North,359,3.0,4.0,27,0.00,,,0.00,weatherlink.com 1.10,2012-02-04 14:07:00,
2012-02-04 06:22:00,36.2,7.0,30.13,North,9,2.0,4.0,29,0.00,,,0.00,weatherlink.com 1.10,2012-02-04 14:22:00,
2012-02-04 06:37:00,36.4,6.0,30.13,NNE,23,3.0,5.0,28,0.00,,,0.00,weatherlink.com 1.10,2012-02-04 14:37:00,
2012-02-04 06:52:00,35.7,6.0,30.13,NNE,31,1.0,5.0,29,0.00,,,0.00,weatherlink.com 1.10,2012-02-04 14:52:00,
2012-02-04 07:07:00,35.5,5.0,30.14,NNE,27,2.0,3.0,28,0.00,,,0.00,weatherlink.com 1.10,2012-02-04 15:07:00,
2012-02-04 07:22:00,34.9,7.0,30.14,NNE,26,1.0,2.0,31,0.00,,,0.00,weatherlink.com 1.10,2012-02-04 15:22:00,
2012-02-04 07:37:00,36.5,8.0,30.14,North,5,1.0,3.0,30,0.00,,,0.00,weatherlink.com 1.10,2012-02-04 15:37:00,
2012-02-04 07:52:00,38.8,11.0,30.15,NE,39,2.0,2.0,32,0.00,,,0.00,weatherlink.com 1.10,2012-02-04 15:52:00,
2012-02-04 08:07:00,39.6,11.0,30.15,NNE,33,0.0,1.0,31,0.00,,,0.00,weatherlink.com 1.10,2012-02-04 16:07:00,
2012-02-04 08:22:00,40.9,12.0,30.15,NE,39,0.0,1.0,31,0.00,,,0.00,weatherlink.com 1.10,2012-02-04 16:22:00,
2012-02-04 08:37:00,41.3,10.0,30.15,NE,35,0.0,1.0,28,0.00,,,0.00,weatherlink.com 1.10,2012-02-04 16:37:00,
2012-02-04 08:52:00,42.9,12.0,30.15,NNW,333,1.0,2.0,28,0.00,,,0.00,weatherlink.com 1.10,2012-02-04 16:52:00,
2012-02-04 09:07:00,44.9,16.0,30.16,SE,125,1.0,3.0,31,0.00,,,0.00,weatherlink.com 1.10,2012-02-04 17:07:00,
2012-02-04 09:22:00,45.9,16.0,30.15,SW,215,0.0,4.0,30,0.00,,,0.00,weatherlink.com 1.10,2012-02-04 17:22:00,
2012-02-04 09:37:00,46.8,17.0,30.16,SSW,201,1.0,7.0,30,0.00,,,0.00,weatherlink.com 1.10,2012-02-04 17:37:00,
2012-02-04 09:52:00,46.9,18.0,30.16,SSW,213,1.0,5.0,31,0.00,,,0.00,weatherlink.com 1.10,2012-02-04 17:52:00,
2012-02-04 10:07:00,47.5,17.0,30.16,ESE,102,1.0,3.0,30,0.00,,,0.00,weatherlink.com 1.10,2012-02-04 18:07:00,
2012-02-04 10:22:00,47.9,17.0,30.15,West,265,0.0,3.0,29,0.00,,,0.00,weatherlink.com 1.10,2012-02-04 18:22:00,
2012-02-04 10:37:00,48.5,18.0,30.15,ESE,103,1.0,5.0,30,0.00,,,0.00,weatherlink.com 1.10,2012-02-04 18:37:00,
2012-02-04 10:52:00,48.8,18.0,30.15,SW,224,2.0,6.0,30,0.00,,,0.00,weatherlink.com 1.10,2012-02-04 18:52:00,
2012-02-04 11:07:00,49.4,18.0,30.14,WSW,243,0.0,7.0,29,0.00,,,0.00,weatherlink.com 1.10,2012-02-04 19:07:00,
2012-02-04 11:22:00,49.9,19.0,30.14,WSW,245,0.0,7.0,29,0.00,,,0.00,weatherlink.com 1.10,2012-02-04 19:22:00,
2012-02-04 11:38:00,50.4,18.0,30.14,SW,231,3.0,9.0,28,0.00,,,0.00,weatherlink.com 1.10,2012-02-04 19:38:00,
2012-02-04 11:53:00,50.7,19.0,30.12,SSW,203,5.0,11.0,29,0.00,,,0.00,weatherlink.com 1.10,2012-02-04 19:53:00,
2012-02-04 12:08:00,52.0,20.0,30.12,SW,226,1.0,6.0,29,0.00,,,0.00,weatherlink.com 1.10,2012-02-04 20:08:00,
2012-02-04 12:23:00,52.3,19.0,30.11,SE,139,3.0,8.0,27,0.00,,,0.00,weatherlink.com 1.10,2012-02-04 20:23:00,
2012-02-04 12:38:00,51.9,20.0,30.11,SW,215,4.0,10.0,29,0.00,,,0.00,weatherlink.com 1.10,2012-02-04 20:38:00,
2012-02-04 12:53:00,52.6,20.0,30.10,WSW,245,0.0,6.0,28,0.00,,,0.00,weatherlink.com 1.10,2012-02-04 20:53:00,
2012-02-04 13:08:00,52.1,20.0,30.10,SW,233,0.0,8.0,28,0.00,,,0.00,weatherlink.com 1.10,2012-02-04 21:08:00,
2012-02-04 13:23:00,52.4,20.0,30.09,West,278,0.0,4.0,28,0.00,,,0.00,weatherlink.com 1.10,2012-02-04 21:23:00,
2012-02-04 13:53:00,52.5,19.0,30.09,East,101,2.0,9.0,27,0.00,,,0.00,weatherlink.com 1.10,2012-02-04 21:53:00,
2012-02-04 14:08:00,52.3,20.0,30.09,SSW,204,4.0,9.0,28,0.00,,,0.00,weatherlink.com 1.10,2012-02-04 22:08:00,
2012-02-04 14:23:00,53.1,21.0,30.09,SSW,210,4.0,9.0,28,0.00,,,0.00,weatherlink.com 1.10,2012-02-04 22:23:00,
2012-02-04 14:38:00,52.7,19.0,30.09,WSW,243,0.0,7.0,27,0.00,,,0.00,weatherlink.com 1.10,2012-02-04 22:38:00,
2012-02-04 14:55:00,52.7,19.0,30.09,ESE,107,2.0,11.0,27,0.00,,,0.00,weatherlink.com 1.10,2012-02-04 22:55:00,
2012-02-04 15:08:00,53.2,21.0,30.09,SSW,211,3.0,7.0,28,0.00,,,0.00,weatherlink.com 1.10,2012-02-04 23:08:00,
2012-02-04 15:23:00,53.1,21.0,30.10,ESE,115,1.0,6.0,28,0.00,,,0.00,weatherlink.com 1.10,2012-02-04 23:23:00,
2012-02-04 15:38:00,52.5,19.0,30.09,ESE,118,2.0,7.0,27,0.00,,,0.00,weatherlink.com 1.10,2012-02-04 23:38:00,
2012-02-04 15:53:00,51.0,20.0,30.10,ENE,72,0.0,3.0,29,0.00,,,0.00,weatherlink.com 1.10,2012-02-04 23:53:00,
2012-02-04 16:08:00,50.4,19.0,30.10,WSW,251,2.0,6.0,29,0.00,,,0.00,weatherlink.com 1.10,2012-02-05 00:08:00,
2012-02-04 16:23:00,49.7,20.0,30.10,SW,217,2.0,4.0,31,0.00,,,0.00,weatherlink.com 1.10,2012-02-05 00:23:00,
2012-02-04 16:38:00,49.6,19.0,30.10,East,99,0.0,4.0,30,0.00,,,0.00,weatherlink.com 1.10,2012-02-05 00:38:00,
2012-02-04 16:53:00,48.3,20.0,30.11,East,86,0.0,2.0,32,0.00,,,0.00,weatherlink.com 1.10,2012-02-05 00:53:00,
2012-02-04 17:08:00,47.1,19.0,30.11,East,82,0.0,1.0,33,0.00,,,0.00,weatherlink.com 1.10,2012-02-05 01:08:00,
2012-02-04 17:23:00,45.9,20.0,30.11,East,97,0.0,1.0,36,0.00,,,0.00,weatherlink.com 1.10,2012-02-05 01:23:00,
2012-02-04 17:38:00,42.7,20.0,30.12,East,95,0.0,1.0,41,0.00,,,0.00,weatherlink.com 1.10,2012-02-05 01:38:00,
2012-02-04 17:53:00,41.2,20.0,30.12,NNE,18,0.0,2.0,42,0.00,,,0.00,weatherlink.com 1.10,2012-02-05 01:53:00,
2012-02-04 18:08:00,39.8,19.0,30.12,NNE,19,1.0,1.0,44,0.00,,,0.00,weatherlink.com 1.10,2012-02-05 02:08:00,
2012-02-04 18:38:00,38.9,18.0,30.13,NE,41,0.0,1.0,43,0.00,,,0.00,weatherlink.com 1.10,2012-02-05 02:38:00,
2012-02-04 18:53:00,38.6,17.0,30.14,NNE,32,1.0,2.0,42,0.00,,,0.00,weatherlink.com 1.10,2012-02-05 02:53:00,
2012-02-04 19:08:00,38.3,17.0,30.14,NNE,20,1.0,3.0,42,0.00,,,0.00,weatherlink.com 1.10,2012-02-05 03:08:00,
2012-02-04 19:23:00,37.5,17.0,30.14,NNE,27,2.0,2.0,44,0.00,,,0.00,weatherlink.com 1.10,2012-02-05 03:23:00,
2012-02-04 19:38:00,38.6,18.0,30.14,NNE,18,2.0,2.0,43,0.00,,,0.00,weatherlink.com 1.10,2012-02-05 03:38:00,
2012-02-04 19:54:00,38.3,18.0,30.14,NNE,29,0.0,1.0,44,0.00,,,0.00,weatherlink.com 1.10,2012-02-05 03:54:00,
2012-02-04 20:08:00,38.8,17.0,30.14,NNE,22,2.0,2.0,42,0.00,,,0.00,weatherlink.com 1.10,2012-02-05 04:08:00,
2012-02-04 20:23:00,38.3,17.0,30.14,NNE,22,1.0,2.0,43,0.00,,,0.00,weatherlink.com 1.10,2012-02-05 04:23:00,
2012-02-04 20:38:00,38.4,18.0,30.15,NNE,26,2.0,3.0,43,0.00,,,0.00,weatherlink.com 1.10,2012-02-05 04:38:00,
2012-02-04 21:08:00,37.9,18.0,30.14,North,360,1.0,1.0,44,0.00,,,0.00,weatherlink.com 1.10,2012-02-05 05:08:00,
2012-02-04 21:23:00,38.4,18.0,30.14,North,6,0.0,2.0,43,0.00,,,0.00,weatherlink.com 1.10,2012-02-05 05:23:00,
2012-02-04 21:39:00,37.3,18.0,30.14,NNE,22,1.0,2.0,45,0.00,,,0.00,weatherlink.com 1.10,2012-02-05 05:39:00,
2012-02-04 21:54:00,35.9,17.0,30.15,NNE,12,2.0,2.0,47,0.00,,,0.00,weatherlink.com 1.10,2012-02-05 05:54:00,
2012-02-04 22:54:00,38.1,18.0,30.15,North,1,3.0,4.0,44,0.00,,,0.00,weatherlink.com 1.10,2012-02-05 06:54:00,
2012-02-04 23:09:00,38.5,18.0,30.15,North,11,3.0,4.0,43,0.00,,,0.00,weatherlink.com 1.10,2012-02-05 07:09:00,
2012-02-04 23:24:00,39.3,17.0,30.14,NNE,27,5.0,5.0,41,0.00,,,0.00,weatherlink.com 1.10,2012-02-05 07:24:00,
2012-02-04 23:56:00,37.7,17.0,30.14,NNE,16,3.0,3.0,44,0.00,,,0.00,weatherlink.com 1.10,2012-02-05 07:56:00,